Time;durP1;ratioP1;P1;durP2;ratioP2;P2;SDS_P1;SDS_P2;PMS_P1;PMS_P2;Temp;Humidity;BMP_temperature;BMP_pressure;BME280_temperature;BME280_humidity;BME280_pressure;Samples;Min_cycle;Max_cycle;Signal;HPM_P1;HPM_P2
2024/04/16 00:00:41;;;;;;;;;1.00;0.50;;;;;14.86;100.00;98429.78;6275512;20;2731588;-49
2024/04/16 00:03:08;;;;;;;;;1.00;0.00;;;;;14.95;100.00;98432.56;6277115;20;2726733;-47
2024/04/16 00:05:35;;;;;;;;;0.00;0.00;;;;;14.93;100.00;98438.16;6273440;20;2727818;-47
2024/04/16 00:08:03;;;;;;;;;0.00;0.00;;;;;14.75;100.00;98429.16;6291168;20;1800469;-46
2024/04/16 00:10:29;;;;;;;;;1.00;1.00;;;;;14.82;100.00;98427.53;6306053;20;2736855;-45
2024/04/16 00:12:56;;;;;;;;;2.50;2.00;;;;;14.72;100.00;98430.31;6272617;20;2747198;-46
2024/04/16 00:15:22;;;;;;;;;3.00;2.00;;;;;14.83;100.00;98421.16;6275632;20;2736751;-47
2024/04/16 00:17:49;;;;;;;;;3.00;2.00;;;;;14.87;100.00;98426.06;6275432;20;2751276;-49
2024/04/16 00:20:15;;;;;;;;;3.00;1.50;;;;;14.69;100.00;98428.78;6274485;20;2739913;-47
2024/04/16 00:22:43;;;;;;;;;3.00;2.00;;;;;14.65;100.00;98424.66;6273118;20;2736781;-48
2024/04/16 00:25:10;;;;;;;;;4.50;3.00;;;;;14.79;100.00;98430.56;6274034;20;2767979;-46
2024/04/16 00:27:37;;;;;;;;;2.00;2.00;;;;;14.62;100.00;98421.44;6272745;20;2739879;-44
2024/04/16 00:30:05;;;;;;;;;4.50;2.00;;;;;14.65;100.00;98421.13;6271426;20;2752484;-47
2024/04/16 00:32:31;;;;;;;;;3.50;2.00;;;;;14.81;100.00;98417.75;6273995;20;2747162;-47
2024/04/16 00:34:58;;;;;;;;;2.00;2.00;;;;;14.87;100.00;98412.56;6274963;20;2733658;-45
2024/04/16 00:37:24;;;;;;;;;2.00;2.00;;;;;14.71;100.00;98418.63;6272540;20;2737809;-50
2024/04/16 00:39:51;;;;;;;;;1.00;1.00;;;;;14.53;100.00;98406.09;6272151;20;2720089;-48
2024/04/16 00:42:17;;;;;;;;;2.00;2.00;;;;;14.79;100.00;98408.94;6274770;20;2744066;-49
2024/04/16 00:44:44;;;;;;;;;3.00;3.00;;;;;14.53;100.00;98404.25;6272184;20;2745101;-47
2024/04/16 00:47:12;;;;;;;;;2.00;2.00;;;;;14.62;100.00;98411.47;6275126;20;2750304;-50
2024/04/16 00:49:39;;;;;;;;;2.00;2.00;;;;;14.46;100.00;98413.94;6273666;20;2735724;-47
2024/04/16 00:52:07;;;;;;;;;3.00;1.50;;;;;14.55;100.00;98407.66;6271673;20;2737831;-47
2024/04/16 00:54:35;;;;;;;;;2.00;2.00;;;;;14.46;100.00;98397.75;6269346;20;2750383;-48
2024/04/16 00:57:03;;;;;;;;;2.50;2.00;;;;;14.53;100.00;98395.31;6273765;20;2752457;-47
2024/04/16 00:59:31;;;;;;;;;4.50;4.00;;;;;14.38;100.00;98393.09;6273465;20;2749325;-49
2024/04/16 01:01:58;;;;;;;;;3.00;3.00;;;;;14.44;100.00;98386.22;6270294;20;2748318;-47
2024/04/16 01:04:26;;;;;;;;;2.00;2.00;;;;;14.70;100.00;98389.94;6271881;20;2755597;-46
2024/04/16 01:06:52;;;;;;;;;5.00;3.50;;;;;14.66;100.00;98393.09;6273110;20;2743132;-49
2024/04/16 01:09:19;;;;;;;;;3.00;3.00;;;;;14.67;100.00;98402.91;6271198;20;2740971;-47
2024/04/16 01:11:46;;;;;;;;;4.00;3.00;;;;;14.60;100.00;98399.09;6270031;20;2756671;-46
2024/04/16 01:14:13;;;;;;;;;4.00;2.00;;;;;14.60;100.00;98383.75;6273384;20;2751323;-48
2024/04/16 01:16:40;;;;;;;;;4.00;3.00;;;;;14.72;100.00;98392.50;6276756;20;2756548;-47
2024/04/16 01:19:08;;;;;;;;;2.00;2.00;;;;;14.70;100.00;98400.75;6278128;20;2753447;-47
2024/04/16 01:21:35;;;;;;;;;4.00;3.00;;;;;14.65;100.00;98399.50;6270098;20;2743145;-47
2024/04/16 01:24:01;;;;;;;;;3.00;3.00;;;;;14.48;100.00;98395.72;6274278;20;2731565;-47
2024/04/16 01:26:28;;;;;;;;;5.50;3.00;;;;;14.65;100.00;98403.06;6273669;20;2740912;-50
2024/04/16 01:28:54;;;;;;;;;8.00;4.00;;;;;14.44;100.00;98388.94;6276092;20;2754450;-46
2024/04/16 01:31:23;;;;;;;;;3.00;3.00;;;;;14.71;100.00;98399.72;6272688;20;2739006;-49
2024/04/16 01:33:50;;;;;;;;;4.50;3.00;;;;;14.65;100.00;98391.41;6278591;20;2744054;-46
2024/04/16 01:36:18;;;;;;;;;7.80;5.00;;;;;14.54;100.00;98381.66;6298113;20;2748234;-51
2024/04/16 01:38:45;;;;;;;;;6.00;5.00;;;;;14.44;100.00;98376.28;6276163;20;2753438;-46
2024/04/16 01:41:11;;;;;;;;;3.50;3.50;;;;;14.68;100.00;98374.88;6277064;20;2748305;-48
2024/04/16 01:43:38;;;;;;;;;7.00;6.00;;;;;14.49;100.00;98381.22;6277760;20;2745164;-48
2024/04/16 01:46:04;;;;;;;;;8.00;5.00;;;;;14.59;100.00;98375.81;6278611;20;2746121;-51
2024/04/16 01:48:31;;;;;;;;;1.50;1.50;;;;;14.51;100.00;98368.44;6276512;20;2735793;-48
2024/04/16 01:50:57;;;;;;;;;5.00;3.00;;;;;14.54;100.00;98370.84;6279062;20;2737940;-47
2024/04/16 01:53:26;;;;;;;;;3.60;3.60;;;;;14.56;100.00;98363.47;6299696;20;2744101;-47
2024/04/16 01:55:52;;;;;;;;;7.00;4.00;;;;;14.54;100.00;98357.34;6303710;20;2744050;-50
2024/04/16 01:58:19;;;;;;;;;6.00;5.00;;;;;14.59;100.00;98363.16;6276299;20;2748198;-47
2024/04/16 02:00:45;;;;;;;;;3.50;3.50;;;;;14.56;100.00;98365.28;6276833;20;2744210;-46
2024/04/16 02:03:12;;;;;;;;;7.00;6.00;;;;;14.45;100.00;98367.16;6273162;20;2748965;-46
2024/04/16 02:05:40;;;;;;;;;5.00;5.00;;;;;14.60;100.00;98361.28;6277947;20;2748223;-47
2024/04/16 02:08:07;;;;;;;;;7.50;5.00;;;;;14.55;100.00;98375.25;6276246;20;2744115;-47
2024/04/16 02:10:33;;;;;;;;;3.00;3.00;;;;;14.52;100.00;98369.28;6275412;20;2744050;-46
2024/04/16 02:13:00;;;;;;;;;6.00;4.00;;;;;14.37;100.00;98371.63;6277545;20;2748194;-47
2024/04/16 02:15:26;;;;;;;;;8.00;5.00;;;;;14.58;100.00;98368.69;6277782;20;2732612;-46
2024/04/16 02:17:53;;;;;;;;;7.00;6.00;;;;;14.48;100.00;98357.91;6274701;20;2748210;-49
2024/04/16 02:20:19;;;;;;;;;5.00;5.00;;;;;14.48;100.00;98360.59;6276162;20;2746128;-47
2024/04/16 02:22:46;;;;;;;;;5.50;5.00;;;;;14.40;100.00;98350.59;6275852;20;2748276;-47
2024/04/16 02:25:14;;;;;;;;;5.00;4.60;;;;;14.47;100.00;98356.22;6301882;20;2736875;-49
2024/04/16 02:27:44;;;;;;;;;5.50;4.00;;;;;14.45;100.00;98347.41;6346257;20;3459729;-47
2024/04/16 02:30:11;;;;;;;;;5.00;3.50;;;;;14.47;100.00;98345.41;6304142;20;2756764;-49
2024/04/16 02:32:37;;;;;;;;;6.00;3.00;;;;;14.40;100.00;98341.63;6277580;20;2731559;-48
2024/04/16 02:35:06;;;;;;;;;4.20;4.00;;;;;14.38;100.00;98340.94;6297249;20;2747181;-50
2024/04/16 02:37:32;;;;;;;;;3.50;3.50;;;;;14.40;100.00;98339.78;6276031;20;2756604;-48
2024/04/16 02:39:59;;;;;;;;;4.00;4.00;;;;;14.31;100.00;98342.53;6278254;20;2754450;-47
2024/04/16 02:42:25;;;;;;;;;3.00;3.00;;;;;14.21;100.00;98346.13;6275082;20;2742002;-49
2024/04/16 02:44:52;;;;;;;;;5.00;4.00;;;;;14.28;100.00;98344.53;6272561;20;2753416;-46
2024/04/16 02:47:18;;;;;;;;;4.50;4.00;;;;;14.20;100.00;98339.03;6275279;20;2744042;-50
2024/04/16 02:49:45;;;;;;;;;4.00;4.00;;;;;14.38;100.00;98338.25;6270624;20;2753422;-47
2024/04/16 02:52:11;;;;;;;;;5.00;5.00;;;;;14.31;100.00;98340.69;6274061;20;2748222;-48
2024/04/16 02:54:38;;;;;;;;;3.00;3.00;;;;;14.31;100.00;98339.84;6273923;20;2744117;-47
2024/04/16 02:57:05;;;;;;;;;3.00;3.00;;;;;14.23;100.00;98336.03;6272837;20;2754508;-47
2024/04/16 02:59:31;;;;;;;;;4.00;4.00;;;;;14.33;100.00;98343.25;6274913;20;2756547;-47
2024/04/16 03:01:58;;;;;;;;;3.00;3.00;;;;;14.19;100.00;98334.66;6275718;20;2741340;-48
2024/04/16 03:04:24;;;;;;;;;6.50;4.00;;;;;14.15;100.00;98333.25;6272081;20;2748250;-48
2024/04/16 03:06:51;;;;;;;;;4.00;4.00;;;;;14.20;100.00;98339.03;6274320;20;2747291;-50
2024/04/16 03:09:17;;;;;;;;;4.00;4.00;;;;;14.13;100.00;98334.41;6275710;20;2756727;-48
2024/04/16 03:11:44;;;;;;;;;7.50;4.00;;;;;14.02;100.00;98330.91;6275829;20;2756741;-50
2024/04/16 03:14:10;;;;;;;;;4.00;4.00;;;;;14.15;100.00;98333.25;6273349;20;2752372;-46
2024/04/16 03:16:37;;;;;;;;;4.50;4.50;;;;;14.21;100.00;98334.50;6275057;20;2752500;-50
2024/04/16 03:19:03;;;;;;;;;4.00;4.00;;;;;14.08;100.00;98334.84;6274838;20;2741959;-47
2024/04/16 03:21:30;;;;;;;;;3.50;3.50;;;;;14.00;100.00;98338.28;6275068;20;2748313;-48
2024/04/16 03:23:56;;;;;;;;;4.00;4.00;;;;;13.83;100.00;98336.38;6270758;20;2752404;-48
2024/04/16 03:26:25;;;;;;;;;3.00;3.00;;;;;14.05;100.00;98343.25;6299222;20;2750328;-49
2024/04/16 03:28:51;;;;;;;;;0.00;0.00;;;;;14.07;100.00;98351.19;6306033;20;2723243;-47
2024/04/16 03:31:18;;;;;;;;;4.00;4.00;;;;;14.09;100.00;98341.13;6275201;20;2750341;-49
2024/04/16 03:33:45;;;;;;;;;2.50;2.50;;;;;13.68;100.00;98341.41;6294225;20;1801994;-48
2024/04/16 03:36:12;;;;;;;;;3.50;3.50;;;;;13.86;100.00;98346.03;6307701;20;2735696;-47
2024/04/16 03:38:42;;;;;;;;;3.29;3.29;;;;;14.03;100.00;98348.81;6312944;20;3456580;-50
2024/04/16 03:41:08;;;;;;;;;2.50;2.50;;;;;14.05;100.00;98352.19;6307062;20;2737812;-52
2024/04/16 03:43:35;;;;;;;;;2.50;2.50;;;;;13.90;100.00;98344.72;6276541;20;2725310;-49
2024/04/16 03:46:03;;;;;;;;;3.00;3.00;;;;;13.75;100.00;98345.22;6274892;20;2750296;-46
2024/04/16 03:48:29;;;;;;;;;3.00;3.00;;;;;13.74;100.00;98343.50;6275472;20;2739892;-50
2024/04/16 03:50:56;;;;;;;;;2.00;2.00;;;;;13.80;100.00;98342.09;6275049;20;2751434;-49
2024/04/16 03:53:23;;;;;;;;;4.00;4.00;;;;;13.82;100.00;98338.25;6273227;20;2752367;-49
2024/04/16 03:55:49;;;;;;;;;2.50;2.50;;;;;13.66;100.00;98346.09;6276382;20;2734646;-49
2024/04/16 03:58:16;;;;;;;;;4.00;3.00;;;;;13.74;100.00;98343.50;6272433;20;2738861;-45
2024/04/16 04:01:03;;;;;;;;;3.00;3.00;;;;;13.69;100.00;98345.81;6271938;20;2731541;-51
2024/04/16 04:03:33;;;;;;;;;4.00;4.00;;;;;13.77;100.00;98343.22;6273657;20;2754609;-48
2024/04/16 04:06:00;;;;;;;;;3.00;3.00;;;;;13.59;100.00;98345.00;6276191;20;2739870;-48
2024/04/16 04:08:30;;;;;;;;;5.80;4.00;;;;;13.63;100.00;98351.78;6312930;20;2466980;-46
2024/04/16 04:10:57;;;;;;;;;3.00;3.00;;;;;13.63;100.00;98349.09;6303151;20;2741986;-49
2024/04/16 04:13:23;;;;;;;;;5.00;4.00;;;;;13.58;100.00;98349.50;6272167;20;2756553;-49
2024/04/16 04:15:52;;;;;;;;;4.60;3.20;;;;;13.67;100.00;98341.56;6298556;20;2751338;-46
2024/04/16 04:18:18;;;;;;;;;3.00;3.00;;;;;13.55;100.00;98348.97;6304146;20;2740006;-46
2024/04/16 04:20:46;;;;;;;;;3.00;3.00;;;;;13.49;100.00;98349.56;6273479;20;2752457;-47
2024/04/16 04:23:13;;;;;;;;;4.00;4.00;;;;;13.48;100.00;98354.13;6272060;20;2751325;-46
2024/04/16 04:25:39;;;;;;;;;3.00;3.00;;;;;13.59;100.00;98362.03;6272615;20;2744139;-48
2024/04/16 04:28:06;;;;;;;;;5.00;4.00;;;;;13.37;100.00;98367.75;6271127;20;2748276;-47
2024/04/16 04:30:32;;;;;;;;;4.50;3.00;;;;;13.36;100.00;98366.91;6269716;20;2747178;-48
2024/04/16 04:32:59;;;;;;;;;7.50;4.00;;;;;13.34;100.00;98370.72;6273145;20;2756982;-51
2024/04/16 04:35:25;;;;;;;;;5.00;5.00;;;;;13.41;100.00;98371.00;6276573;20;2754450;-47
2024/04/16 04:37:53;;;;;;;;;4.00;4.00;;;;;13.37;100.00;98367.75;6271168;20;2744059;-50
2024/04/16 04:40:19;;;;;;;;;3.00;3.00;;;;;13.36;100.00;98356.09;6274443;20;2739962;-51
2024/04/16 04:42:46;;;;;;;;;4.50;4.50;;;;;13.25;100.00;98361.63;6272687;20;2745107;-49
2024/04/16 04:45:13;;;;;;;;;7.00;5.00;;;;;13.09;100.00;98359.53;6274085;20;2727508;-47
2024/04/16 04:47:39;;;;;;;;;4.00;4.00;;;;;13.26;100.00;98360.66;6273277;20;2741006;-46
2024/04/16 04:50:06;;;;;;;;;3.50;3.50;;;;;13.28;100.00;98364.06;6269813;20;2744044;-48
2024/04/16 04:52:34;;;;;;;;;3.50;3.50;;;;;13.09;100.00;98361.38;6294457;20;1800429;-44
2024/04/16 04:55:03;;;;;;;;;5.00;5.00;;;;;13.03;100.00;98364.63;6307863;20;2748192;-45
2024/04/16 04:57:31;;;;;;;;;3.25;2.25;;;;;13.15;100.00;98363.50;6295431;20;1799416;-51
2024/04/16 04:59:57;;;;;;;;;2.00;2.00;;;;;13.12;100.00;98363.78;6308206;20;2723250;-48
2024/04/16 05:02:24;;;;;;;;;3.00;3.00;;;;;13.07;100.00;98363.34;6276687;20;2746128;-47
2024/04/16 05:04:51;;;;;;;;;3.00;3.00;;;;;12.92;100.00;98360.22;6276008;20;2744070;-50
2024/04/16 05:07:17;;;;;;;;;2.00;2.00;;;;;12.79;100.00;98360.50;6278479;20;2746238;-45
2024/04/16 05:09:44;;;;;;;;;2.00;2.00;;;;;12.95;100.00;98350.03;6275244;20;2746138;-45
2024/04/16 05:12:10;;;;;;;;;3.00;2.00;;;;;12.87;100.00;98359.81;6280689;20;2737810;-49
2024/04/16 05:14:37;;;;;;;;;3.50;2.00;;;;;13.00;100.00;98365.75;6275611;20;2752449;-45
2024/04/16 05:17:04;;;;;;;;;1.75;1.75;;;;;12.87;100.00;98360.66;6295992;20;1809194;-46
2024/04/16 05:19:31;;;;;;;;;2.50;2.50;;;;;12.94;100.00;98377.97;6308505;20;2738843;-45
2024/04/16 05:21:57;;;;;;;;;2.00;2.00;;;;;12.78;100.00;98374.97;6277685;20;2746135;-45
2024/04/16 05:24:24;;;;;;;;;2.00;2.00;;;;;12.84;100.00;98365.47;6276737;20;2749077;-47
2024/04/16 05:26:51;;;;;;;;;1.00;1.00;;;;;12.86;100.00;98358.13;6295471;20;1801277;-45
2024/04/16 05:29:18;;;;;;;;;2.75;0.75;;;;;12.76;100.00;98374.25;6323247;20;1794174;-50
2024/04/16 05:31:46;;;;;;;;;0.75;0.75;;;;;12.82;100.00;98379.09;6325691;20;1800397;-47
2024/04/16 05:34:13;;;;;;;;;1.00;1.00;;;;;12.45;100.00;98365.44;6309274;20;2460700;-45
2024/04/16 05:36:40;;;;;;;;;0.75;0.75;;;;;12.45;100.00;98366.31;6292897;20;1803648;-45
2024/04/16 05:39:07;;;;;;;;;1.00;1.00;;;;;12.56;100.00;98369.84;6323637;20;1801801;-44
2024/04/16 05:41:34;;;;;;;;;1.25;0.75;;;;;12.56;100.00;98378.78;6323827;20;1801564;-47
2024/04/16 05:44:01;;;;;;;;;1.50;1.00;;;;;12.37;100.00;98384.13;6308763;20;2725306;-46
2024/04/16 05:46:27;;;;;;;;;4.00;1.00;;;;;12.55;100.00;98387.00;6278562;20;2728495;-46
2024/04/16 05:48:55;;;;;;;;;1.25;1.00;;;;;12.41;100.00;98386.41;6292220;20;1800529;-47
2024/04/16 05:51:21;;;;;;;;;1.50;1.50;;;;;12.39;100.00;98387.53;6310746;20;2463901;-49
2024/04/16 05:53:49;;;;;;;;;2.25;0.50;;;;;12.48;100.00;98395.63;6291565;20;1803491;-47
2024/04/16 05:56:16;;;;;;;;;1.00;1.00;;;;;12.37;100.00;98394.88;6324254;20;1803485;-50
2024/04/16 05:58:44;;;;;;;;;1.50;0.50;;;;;12.49;100.00;98385.72;6322039;20;1802502;-48
2024/04/16 06:01:12;;;;;;;;;2.25;0.75;;;;;12.17;100.00;98380.53;6324045;20;1803590;-45
2024/04/16 06:03:38;;;;;;;;;0.00;0.00;;;;;12.47;100.00;98385.00;6308762;20;2725346;-49
2024/04/16 06:06:06;;;;;;;;;1.00;1.00;;;;;12.38;100.00;98388.53;6293258;20;1804580;-48
2024/04/16 06:08:33;;;;;;;;;1.00;1.00;;;;;12.29;100.00;98382.13;6324309;20;1796301;-47
2024/04/16 06:11:03;;;;;;;;;1.00;1.00;;;;;12.32;100.00;98384.53;6347307;20;2728462;-47
2024/04/16 06:13:31;;;;;;;;;0.25;0.25;;;;;12.22;100.00;98391.75;6322219;20;1799342;-46
2024/04/16 06:15:57;;;;;;;;;1.00;1.00;;;;;12.34;100.00;98396.00;6307033;20;2725833;-45
2024/04/16 06:18:25;;;;;;;;;0.00;0.00;;;;;12.01;100.00;98383.75;6275793;20;3431610;-47
2024/04/16 06:20:52;;;;;;;;;0.00;0.00;;;;;12.24;100.00;98396.00;6278302;20;2728436;-46
2024/04/16 06:23:21;;;;;;;;;0.50;0.50;;;;;12.07;100.00;98394.78;6294955;20;1804746;-47
2024/04/16 06:25:48;;;;;;;;;0.50;0.50;;;;;12.05;100.00;98391.38;6309336;20;2722229;-47
2024/04/16 06:28:16;;;;;;;;;0.00;0.00;;;;;12.15;100.00;98396.81;6291479;20;1805622;-45
2024/04/16 06:30:42;;;;;;;;;1.00;1.00;;;;;12.19;100.00;98402.75;6323566;20;1802528;-49
2024/04/16 06:33:12;;;;;;;;;1.00;1.00;;;;;12.08;100.00;98406.41;6293760;20;1808763;-52
2024/04/16 06:35:39;;;;;;;;;0.00;0.00;;;;;12.12;100.00;98402.47;6326750;20;1809730;-48
2024/04/16 06:38:05;;;;;;;;;1.00;0.00;;;;;12.08;100.00;98396.50;6310639;20;2729458;-47
2024/04/16 06:40:33;;;;;;;;;1.50;1.00;;;;;11.94;100.00;98410.31;6294919;20;1801509;-45
2024/04/16 06:43:00;;;;;;;;;1.00;1.00;;;;;11.77;100.00;98394.75;6325558;20;1788949;-47
2024/04/16 06:45:28;;;;;;;;;44.33;37.00;;;;;11.95;100.00;98390.47;6305899;20;2855578;-47
2024/04/16 06:47:56;;;;;;;;;43.67;33.33;;;;;11.64;100.00;98390.47;6304557;20;3609727;-48
2024/04/16 06:50:23;;;;;;;;;40.00;33.00;;;;;11.72;100.00;98392.50;6272600;20;2844043;-47
2024/04/16 06:52:54;;;;;;;;;72.00;53.00;;;;;11.64;100.00;98395.00;6274944;20;3650265;-47
2024/04/16 06:55:23;;;;;;;;;75.00;53.67;;;;;11.58;100.00;98390.13;6270078;20;3654437;-45
2024/04/16 06:57:50;;;;;;;;;24.00;17.00;;;;;11.47;100.00;98388.38;6271829;20;3561808;-45
2024/04/16 07:00:19;;;;;;;;;47.33;39.33;;;;;11.39;100.00;98388.19;6273276;20;3596264;-47
2024/04/16 07:02:47;;;;;;;;;20.33;17.33;;;;;11.37;100.00;98391.03;6306056;20;3573267;-45
2024/04/16 07:05:15;;;;;;;;;58.00;43.67;;;;;11.51;100.00;98380.91;6303970;20;3647128;-46
2024/04/16 07:07:44;;;;;;;;;60.33;46.33;;;;;11.36;100.00;98396.50;6271916;20;3641931;-46
2024/04/16 07:10:12;;;;;;;;;47.67;36.00;;;;;11.55;100.00;98398.47;6270749;20;3623209;-46
2024/04/16 07:12:40;;;;;;;;;34.00;32.33;;;;;11.51;100.00;98397.88;6304472;20;3607607;-48
2024/04/16 07:15:08;;;;;;;;;24.67;19.67;;;;;11.46;100.00;98405.50;6266164;20;2847249;-46
2024/04/16 07:17:37;;;;;;;;;41.00;33.67;;;;;11.46;100.00;98405.50;6299330;20;2855748;-46
2024/04/16 07:20:06;;;;;;;;;34.67;22.00;;;;;11.41;100.00;98405.03;6304411;20;3614848;-47
2024/04/16 07:22:33;;;;;;;;;14.50;13.50;;;;;11.05;100.00;98409.00;6305239;20;2498310;-46
2024/04/16 07:25:01;;;;;;;;;73.67;62.33;;;;;11.42;100.00;98404.88;6274210;20;3653645;-47
2024/04/16 07:27:28;;;;;;;;;2.00;1.00;;;;;10.57;100.00;98404.91;6289914;20;1805623;-47
2024/04/16 07:29:55;;;;;;;;;94.00;83.00;;;;;11.24;100.00;98408.28;6296660;20;1947371;-47
2024/04/16 07:32:23;;;;;;;;;32.00;27.67;;;;;11.39;100.00;98420.44;6274957;20;3604411;-49
2024/04/16 07:34:49;;;;;;;;;4.00;4.00;;;;;11.11;100.00;98425.47;6274680;20;2740918;-46
2024/04/16 07:37:18;;;;;;;;;48.33;35.33;;;;;11.40;100.00;98427.50;6273617;20;2868245;-45
2024/04/16 07:39:48;;;;;;;;;24.50;22.50;;;;;11.02;100.00;98418.16;6300552;20;2831533;-49
2024/04/16 07:42:17;;;;;;;;;61.67;43.67;;;;;11.42;100.00;98417.47;6269300;20;3644126;-47
2024/04/16 07:44:43;;;;;;;;;112.00;87.00;;;;;11.69;100.00;98432.22;6262191;20;1938863;-50
2024/04/16 07:47:10;;;;;;;;;124.00;96.50;;;;;11.74;100.00;98435.38;6261776;20;1955623;-47
2024/04/16 07:49:39;;;;;;;;;213.00;159.50;;;;;11.61;100.00;98431.06;6267629;20;4475259;-46
2024/04/16 07:52:08;;;;;;;;;68.50;51.25;;;;;11.68;100.00;98435.91;6270344;20;4387749;-50
2024/04/16 07:54:36;;;;;;;;;54.33;41.00;;;;;11.58;100.00;98435.84;6299587;20;3627392;-51
2024/04/16 07:57:04;;;;;;;;;40.67;32.33;;;;;11.46;100.00;98439.59;6307093;20;3599244;-50
2024/04/16 07:59:32;;;;;;;;;31.33;28.67;;;;;11.34;100.00;98428.03;6265312;20;3599204;-50
2024/04/16 08:01:59;;;;;;;;;11.00;9.50;;;;;11.24;100.00;98429.78;6299279;20;2776444;-48
2024/04/16 08:04:26;;;;;;;;;7.00;7.00;;;;;11.18;100.00;98433.84;6271211;20;2748211;-46
2024/04/16 08:06:52;;;;;;;;;6.00;4.00;;;;;11.16;100.00;98431.31;6273088;20;2438888;-46
2024/04/16 08:09:19;;;;;;;;;6.50;4.50;;;;;10.83;100.00;98439.50;6269777;20;2739903;-49
2024/04/16 08:11:45;;;;;;;;;3.50;3.00;;;;;10.55;100.00;98447.94;6265901;20;2744057;-51
2024/04/16 08:14:16;;;;;;;;;2.00;2.00;;;;;10.38;100.00;98435.06;6275544;20;2727401;-48
2024/04/16 08:16:44;;;;;;;;;1.00;1.00;;;;;10.49;100.00;98448.47;6290100;20;1798337;-46
2024/04/16 08:19:13;;;;;;;;;22.17;19.00;;;;;10.36;100.00;98452.28;6322968;20;2840058;-48
2024/04/16 08:21:41;;;;;;;;;35.67;25.00;;;;;10.45;100.00;98448.81;6302919;20;3605487;-51
2024/04/16 08:24:09;;;;;;;;;21.50;15.50;;;;;10.38;100.00;98453.00;6303742;20;2828518;-50
2024/04/16 08:26:37;;;;;;;;;39.67;32.00;;;;;10.42;100.00;98457.13;6277547;20;2858684;-51
2024/04/16 08:29:04;;;;;;;;;24.50;17.00;;;;;10.47;100.00;98452.25;6307297;20;2491944;-48
2024/04/16 08:31:32;;;;;;;;;52.67;41.00;;;;;10.62;100.00;98447.47;6277281;20;2877458;-49
2024/04/16 08:34:01;;;;;;;;;47.00;37.50;;;;;10.56;100.00;98446.16;6309377;20;2854606;-48
2024/04/16 08:36:32;;;;;;;;;34.67;31.00;;;;;10.67;100.00;98462.22;6278568;20;3598312;-50
2024/04/16 08:39:01;;;;;;;;;92.67;79.67;;;;;10.39;100.00;98460.06;6275468;20;3679577;-50
2024/04/16 08:41:27;;;;;;;;;10.00;10.00;;;;;10.59;100.00;98455.78;6282047;20;2781587;-48
2024/04/16 08:43:55;;;;;;;;;6.00;6.00;;;;;10.59;100.00;98453.94;6278217;20;2736794;-49
2024/04/16 08:46:23;;;;;;;;;16.00;12.00;;;;;10.43;100.00;98440.91;6278672;20;2808718;-46
2024/04/16 08:48:52;;;;;;;;;55.33;44.00;;;;;10.73;100.00;98440.22;6276711;20;3633613;-47
2024/04/16 08:51:21;;;;;;;;;15.67;12.67;;;;;10.67;100.00;98451.50;6306520;20;3530542;-48
2024/04/16 08:53:51;;;;;;;;;5.00;5.00;;;;;10.79;100.00;98459.50;6325912;20;1796205;-47
2024/04/16 08:56:18;;;;;;;;;10.00;10.00;;;;;10.65;100.00;98469.53;6308703;20;2785746;-46
2024/04/16 08:58:45;;;;;;;;;4.50;4.50;;;;;10.33;100.00;98469.47;6295564;20;1812891;-45
2024/04/16 09:01:15;;;;;;;;;3.00;1.50;;;;;10.44;100.00;98472.13;6328130;20;1811964;-46
2024/04/16 09:03:49;;;;;;;;;1.50;1.00;;;;;10.42;100.00;98490.19;6327447;20;1805642;-47
2024/04/16 09:06:17;;;;;;;;;0.00;0.00;;;;;10.27;100.00;98500.31;6323913;20;1803496;-48
2024/04/16 09:08:45;;;;;;;;;2.00;2.00;;;;;10.16;100.00;98520.88;6311725;20;2750320;-48
2024/04/16 09:11:12;;;;;;;;;19.50;18.50;;;;;10.00;100.00;98532.78;6277053;20;2825388;-46
2024/04/16 09:13:43;;;;;;;;;0.25;0.25;;;;;9.81;100.00;98540.56;6296955;20;1798253;-47
2024/04/16 09:16:11;;;;;;;;;0.00;0.00;;;;;9.71;100.00;98553.81;6327640;20;1803633;-47
2024/04/16 09:18:38;;;;;;;;;1.00;1.00;;;;;9.79;100.00;98556.75;6328309;20;1803506;-50
2024/04/16 09:21:05;;;;;;;;;1.00;1.00;;;;;9.73;100.00;98567.97;6326597;20;1803501;-48
2024/04/16 09:23:33;;;;;;;;;1.50;0.25;;;;;9.38;100.00;98578.66;6325362;20;1809823;-52
2024/04/16 09:25:59;;;;;;;;;0.00;0.00;;;;;9.14;100.00;98582.19;6311567;20;3446117;-52
2024/04/16 09:28:27;;;;;;;;;1.33;0.00;;;;;9.10;100.00;98593.22;6293242;20;1807665;-49
2024/04/16 09:30:59;;;;;;;;;0.00;0.00;;;;;9.07;100.00;98596.97;6309292;20;2724343;-51
2024/04/16 09:33:30;;;;;;;;;4.50;2.50;;;;;9.10;100.00;98582.53;6294782;20;1817166;-49
2024/04/16 09:35:57;;;;;;;;;4.00;4.00;;;;;9.45;100.00;98585.25;6310435;20;2738838;-54
2024/04/16 09:38:23;;;;;;;;;6.00;5.00;;;;;9.22;100.00;98589.66;6278362;20;2745104;-51
2024/04/16 09:40:52;;;;;;;;;5.00;5.00;;;;;9.31;100.00;98596.16;6278296;20;2747258;-51
2024/04/16 09:43:20;;;;;;;;;6.50;6.00;;;;;9.11;100.00;98592.25;6279794;20;2732600;-49
2024/04/16 09:45:49;;;;;;;;;0.00;0.00;;;;;9.32;100.00;98585.34;6328764;20;1803983;-48
2024/04/16 09:48:18;;;;;;;;;1.00;1.00;;;;;9.05;100.00;98579.31;6325667;20;1803507;-51
2024/04/16 09:50:48;;;;;;;;;3.50;3.50;;;;;8.93;100.00;98578.41;6309928;20;2748235;-50
2024/04/16 09:53:19;;;;;;;;;0.00;0.00;;;;;8.93;100.00;98589.97;6295523;20;1805595;-53
2024/04/16 09:55:48;;;;;;;;;0.50;0.00;;;;;8.96;100.00;98584.38;6328158;20;1802438;-48
2024/04/16 09:58:18;;;;;;;;;1.00;1.00;;;;;9.00;100.00;98575.16;6324459;20;1804625;-51
2024/04/16 10:00:47;;;;;;;;;2.00;2.00;;;;;9.13;100.00;98579.59;6325757;20;1813952;-55
2024/04/16 10:03:15;;;;;;;;;1.25;1.25;;;;;9.08;100.00;98579.94;6327373;20;1805598;-50
2024/04/16 10:05:43;;;;;;;;;0.50;0.50;;;;;8.78;100.00;98575.00;6325981;20;1807740;-52
2024/04/16 10:08:11;;;;;;;;;1.25;1.00;;;;;8.66;100.00;98575.88;6325079;20;1805677;-50
2024/04/16 10:10:39;;;;;;;;;1.75;0.00;;;;;8.57;100.00;98588.94;6326617;20;1802411;-46
2024/04/16 10:13:06;;;;;;;;;1.00;0.00;;;;;8.59;100.00;98590.69;6325268;20;1804564;-49
2024/04/16 10:15:34;;;;;;;;;4.50;1.00;;;;;8.62;100.00;98582.44;6324857;20;1802434;-47
2024/04/16 10:18:02;;;;;;;;;3.50;3.00;;;;;8.45;100.00;98573.78;6307605;20;2756537;-52
2024/04/16 10:20:30;;;;;;;;;0.00;0.00;;;;;8.46;100.00;98571.97;6292909;20;1805631;-49
2024/04/16 10:22:59;;;;;;;;;2.00;2.00;;;;;8.57;100.00;98577.41;6310695;20;2734720;-53
2024/04/16 10:25:33;;;;;;;;;2.00;0.75;;;;;8.19;100.00;98583.59;6324721;20;1803027;-48
2024/04/16 10:28:04;;;;;;;;;0.00;0.00;;;;;8.09;100.00;98587.88;6325901;20;1800333;-53
2024/04/16 10:30:36;;;;;;;;;0.00;0.00;;;;;8.37;100.00;98581.44;6322673;20;1804507;-52
2024/04/16 10:33:04;;;;;;;;;0.75;0.00;;;;;8.38;100.00;98583.16;6325883;20;1809823;-50
2024/04/16 10:35:33;;;;;;;;;0.00;0.00;;;;;8.60;100.00;98587.03;6324895;20;1807429;-47
2024/04/16 10:38:02;;;;;;;;;1.25;0.50;;;;;8.38;100.00;98572.47;6322934;20;1802038;-50
2024/04/16 10:40:31;;;;;;;;;7.50;4.00;;;;;7.96;100.00;98560.28;6309449;20;2750319;-50
2024/04/16 10:43:01;;;;;;;;;1.67;1.67;;;;;8.26;100.00;98557.28;6298055;20;1813940;-49
2024/04/16 10:45:31;;;;;;;;;0.00;0.00;;;;;8.17;100.00;98568.63;6325810;20;1800338;-50
2024/04/16 10:48:00;;;;;;;;;1.00;1.00;;;;;8.22;100.00;98558.47;6322595;20;1804528;-52
2024/04/16 10:50:27;;;;;;;;;3.00;0.00;;;;;8.21;100.00;98565.63;6325237;20;1807622;-51
2024/04/16 10:52:56;;;;;;;;;3.00;3.00;;;;;8.35;100.00;98570.00;6321867;20;1813959;-47
2024/04/16 10:55:25;;;;;;;;;2.00;2.00;;;;;8.19;100.00;98582.72;6323386;20;1816053;-51
2024/04/16 10:57:52;;;;;;;;;1.00;1.00;;;;;8.12;100.00;98564.44;6323443;20;1801863;-50
2024/04/16 11:00:20;;;;;;;;;0.00;0.00;;;;;8.17;100.00;98568.63;6324180;20;1803459;-50
2024/04/16 11:02:47;;;;;;;;;2.50;0.50;;;;;8.17;100.00;98568.63;6326433;20;1802874;-48
2024/04/16 11:05:21;;;;;;;;;3.00;3.00;;;;;8.20;100.00;98573.75;6307633;20;2751371;-48
2024/04/16 11:07:51;;;;;;;;;0.00;0.00;;;;;8.38;100.00;98585.84;6292212;20;1807664;-50